sensor_id;sensor_type;location;lat;lon;timestamp;pressure;altitude;pressure_sealevel;temperature;humidity
80149;BME280;69473;42.426;26.644;2023-06-26T00:02:13;98497.16;;;20.73;80.29
80149;BME280;69473;42.426;26.644;2023-06-26T00:04:39;98497.00;;;20.76;80.33
80149;BME280;69473;42.426;26.644;2023-06-26T00:07:05;98497.69;;;20.80;80.37
80149;BME280;69473;42.426;26.644;2023-06-26T00:09:30;98498.16;;;20.70;80.41
80149;BME280;69473;42.426;26.644;2023-06-26T00:11:56;98494.59;;;20.71;80.47
80149;BME280;69473;42.426;26.644;2023-06-26T00:14:21;98483.22;;;20.71;80.17
80149;BME280;69473;42.426;26.644;2023-06-26T00:16:47;98487.25;;;20.78;80.15
80149;BME280;69473;42.426;26.644;2023-06-26T00:19:15;98482.75;;;20.80;80.70
80149;BME280;69473;42.426;26.644;2023-06-26T00:21:41;98483.34;;;20.85;79.32
80149;BME280;69473;42.426;26.644;2023-06-26T00:24:16;98470.19;;;20.85;79.68
80149;BME280;69473;42.426;26.644;2023-06-26T00:26:42;98470.03;;;20.88;78.69
80149;BME280;69473;42.426;26.644;2023-06-26T00:29:08;98472.69;;;20.71;79.79
80149;BME280;69473;42.426;26.644;2023-06-26T00:31:33;98472.84;;;20.68;80.95
80149;BME280;69473;42.426;26.644;2023-06-26T00:34:00;98478.81;;;20.71;80.45
80149;BME280;69473;42.426;26.644;2023-06-26T00:36:26;98480.91;;;20.65;81.03
80149;BME280;69473;42.426;26.644;2023-06-26T00:38:52;98478.81;;;20.71;79.85
80149;BME280;69473;42.426;26.644;2023-06-26T00:41:18;98475.94;;;20.76;80.23
80149;BME280;69473;42.426;26.644;2023-06-26T00:43:44;98471.31;;;20.81;79.85
80149;BME280;69473;42.426;26.644;2023-06-26T00:46:12;98464.31;;;20.80;79.00
80149;BME280;69473;42.426;26.644;2023-06-26T00:48:40;98460.84;;;20.80;79.30
80149;BME280;69473;42.426;26.644;2023-06-26T00:51:07;98457.41;;;20.77;79.41
80149;BME280;69473;42.426;26.644;2023-06-26T00:53:33;98460.47;;;20.70;80.08
80149;BME280;69473;42.426;26.644;2023-06-26T00:55:59;98458.97;;;20.82;79.16
80149;BME280;69473;42.426;26.644;2023-06-26T00:58:25;98459.81;;;20.82;78.89
80149;BME280;69473;42.426;26.644;2023-06-26T01:00:51;98456.09;;;20.86;78.33
80149;BME280;69473;42.426;26.644;2023-06-26T01:03:17;98456.09;;;20.86;79.33
80149;BME280;69473;42.426;26.644;2023-06-26T01:05:43;98454.41;;;20.85;78.86
80149;BME280;69473;42.426;26.644;2023-06-26T01:08:14;98444.34;;;20.76;79.43
80149;BME280;69473;42.426;26.644;2023-06-26T01:10:40;98447.75;;;20.78;79.12
80149;BME280;69473;42.426;26.644;2023-06-26T01:13:06;98451.31;;;20.77;79.01
80149;BME280;69473;42.426;26.644;2023-06-26T01:15:32;98441.09;;;20.71;79.92
80149;BME280;69473;42.426;26.644;2023-06-26T01:17:58;98448.41;;;20.66;79.65
80149;BME280;69473;42.426;26.644;2023-06-26T01:20:26;98441.94;;;20.71;79.00
80149;BME280;69473;42.426;26.644;2023-06-26T01:28:28;98431.19;;;20.76;79.49
80149;BME280;69473;42.426;26.644;2023-06-26T01:30:55;98432.13;;;20.75;78.44
80149;BME280;69473;42.426;26.644;2023-06-26T01:33:21;98436.16;;;20.65;79.47
80149;BME280;69473;42.426;26.644;2023-06-26T01:35:47;98434.16;;;20.70;79.89
80149;BME280;69473;42.426;26.644;2023-06-26T01:38:19;98432.47;;;20.69;79.25
80149;BME280;69473;42.426;26.644;2023-06-26T01:40:45;98428.19;;;20.66;79.12
80149;BME280;69473;42.426;26.644;2023-06-26T01:46:04;98435.72;;;20.57;80.48
80149;BME280;69473;42.426;26.644;2023-06-26T01:48:38;98426.06;;;20.57;79.62
80149;BME280;69473;42.426;26.644;2023-06-26T01:51:07;98430.47;;;20.57;80.02
80149;BME280;69473;42.426;26.644;2023-06-26T01:53:39;98432.78;;;20.63;80.15
80149;BME280;69473;42.426;26.644;2023-06-26T01:56:12;98424.63;;;20.67;79.47
80149;BME280;69473;42.426;26.644;2023-06-26T01:58:43;98428.25;;;20.65;80.13
80149;BME280;69473;42.426;26.644;2023-06-26T02:01:11;98428.34;;;20.63;79.33
80149;BME280;69473;42.426;26.644;2023-06-26T02:03:37;98435.69;;;20.74;79.18
80149;BME280;69473;42.426;26.644;2023-06-26T02:06:03;98419.72;;;20.77;79.48
80149;BME280;69473;42.426;26.644;2023-06-26T02:08:28;98417.88;;;20.79;79.13
80149;BME280;69473;42.426;26.644;2023-06-26T02:10:54;98425.94;;;20.76;79.79
80149;BME280;69473;42.426;26.644;2023-06-26T02:13:19;98426.00;;;20.74;79.08
80149;BME280;69473;42.426;26.644;2023-06-26T02:15:45;98426.88;;;20.75;79.99
80149;BME280;69473;42.426;26.644;2023-06-26T02:18:10;98421.75;;;20.72;80.65
80149;BME280;69473;42.426;26.644;2023-06-26T02:20:36;98436.03;;;20.84;80.49
80149;BME280;69473;42.426;26.644;2023-06-26T02:23:01;98430.94;;;20.81;80.27
80149;BME280;69473;42.426;26.644;2023-06-26T02:25:27;98430.75;;;20.84;79.87
80149;BME280;69473;42.426;26.644;2023-06-26T02:27:53;98429.59;;;20.89;78.31
80149;BME280;69473;42.426;26.644;2023-06-26T02:30:18;98427.91;;;20.88;77.46
80149;BME280;69473;42.426;26.644;2023-06-26T02:32:44;98427.91;;;20.88;77.30
80149;BME280;69473;42.426;26.644;2023-06-26T02:35:10;98429.75;;;20.86;78.18
80149;BME280;69473;42.426;26.644;2023-06-26T02:37:35;98428.59;;;20.92;77.35
80149;BME280;69473;42.426;26.644;2023-06-26T02:40:02;98426.78;;;20.92;76.12
80149;BME280;69473;42.426;26.644;2023-06-26T02:42:29;98430.22;;;20.94;75.96
80149;BME280;69473;42.426;26.644;2023-06-26T02:44:55;98416.94;;;20.96;77.09
80149;BME280;69473;42.426;26.644;2023-06-26T02:47:20;98418.47;;;20.84;77.14
80149;BME280;69473;42.426;26.644;2023-06-26T02:49:46;98426.06;;;20.90;76.59
80149;BME280;69473;42.426;26.644;2023-06-26T02:52:11;98420.63;;;20.93;77.13
80149;BME280;69473;42.426;26.644;2023-06-26T02:54:37;98425.00;;;20.93;77.92
80149;BME280;69473;42.426;26.644;2023-06-26T02:57:02;98420.63;;;20.93;77.56
80149;BME280;69473;42.426;26.644;2023-06-26T02:59:28;98421.47;;;20.94;78.26
80149;BME280;69473;42.426;26.644;2023-06-26T03:01:53;98423.81;;;20.83;78.76
80149;BME280;69473;42.426;26.644;2023-06-26T03:04:19;98422.81;;;20.85;78.34
80149;BME280;69473;42.426;26.644;2023-06-26T03:06:47;98418.19;;;20.73;80.35
80149;BME280;69473;42.426;26.644;2023-06-26T03:09:12;98428.72;;;20.73;80.20
80149;BME280;69473;42.426;26.644;2023-06-26T03:11:38;98428.06;;;20.85;79.28
80149;BME280;69473;42.426;26.644;2023-06-26T03:14:03;98430.28;;;20.93;79.82
80149;BME280;69473;42.426;26.644;2023-06-26T03:16:29;98432.50;;;20.85;79.95
80149;BME280;69473;42.426;26.644;2023-06-26T03:18:54;98429.44;;;20.92;79.38
80149;BME280;69473;42.426;26.644;2023-06-26T03:21:20;98428.94;;;21.02;77.26
80149;BME280;69473;42.426;26.644;2023-06-26T03:23:45;98435.69;;;20.74;78.66
80149;BME280;69473;42.426;26.644;2023-06-26T03:26:11;98431.47;;;20.87;79.65
80149;BME280;69473;42.426;26.644;2023-06-26T03:28:40;98440.81;;;20.93;78.52
80149;BME280;69473;42.426;26.644;2023-06-26T03:31:05;98427.41;;;20.97;80.15
80149;BME280;69473;42.426;26.644;2023-06-26T03:33:31;98433.78;;;20.93;78.18
80149;BME280;69473;42.426;26.644;2023-06-26T03:35:57;98425.03;;;21.09;76.69
80149;BME280;69473;42.426;26.644;2023-06-26T03:38:23;98426.41;;;21.16;75.35
80149;BME280;69473;42.426;26.644;2023-06-26T03:40:49;98427.94;;;21.20;74.72
80149;BME280;69473;42.426;26.644;2023-06-26T03:43:15;98430.31;;;21.25;74.63
80149;BME280;69473;42.426;26.644;2023-06-26T03:45:40;98427.25;;;21.32;73.99
80149;BME280;69473;42.426;26.644;2023-06-26T03:48:06;98427.41;;;21.29;74.00
80149;BME280;69473;42.426;26.644;2023-06-26T03:50:33;98429.88;;;21.16;75.98
80149;BME280;69473;42.426;26.644;2023-06-26T03:52:59;98425.63;;;21.14;75.76
80149;BME280;69473;42.426;26.644;2023-06-26T03:55:24;98428.75;;;21.05;76.58
80149;BME280;69473;42.426;26.644;2023-06-26T03:57:50;98448.78;;;20.75;79.72
80149;BME280;69473;42.426;26.644;2023-06-26T04:00:16;98443.56;;;20.74;80.45
80149;BME280;69473;42.426;26.644;2023-06-26T04:02:41;98440.06;;;20.58;80.90
80149;BME280;69473;42.426;26.644;2023-06-26T04:05:07;98445.31;;;20.58;81.90
80149;BME280;69473;42.426;26.644;2023-06-26T04:07:33;98443.16;;;20.66;81.12
80149;BME280;69473;42.426;26.644;2023-06-26T04:09:59;98451.78;;;20.68;81.55
80149;BME280;69473;42.426;26.644;2023-06-26T04:12:25;98449.47;;;20.79;80.95
80149;BME280;69473;42.426;26.644;2023-06-26T04:14:50;98453.34;;;20.72;81.05
80149;BME280;69473;42.426;26.644;2023-06-26T04:17:16;98454.31;;;20.53;81.74
80149;BME280;69473;42.426;26.644;2023-06-26T04:19:41;98459.56;;;20.53;81.77
80149;BME280;69473;42.426;26.644;2023-06-26T04:22:07;98461.63;;;20.64;82.43
80149;BME280;69473;42.426;26.644;2023-06-26T04:24:32;98460.78;;;20.64;82.02
80149;BME280;69473;42.426;26.644;2023-06-26T04:26:58;98454.31;;;20.53;82.14
80149;BME280;69473;42.426;26.644;2023-06-26T04:29:25;98458.13;;;20.46;82.82
80149;BME280;69473;42.426;26.644;2023-06-26T04:31:52;98458.44;;;20.40;82.39
80149;BME280;69473;42.426;26.644;2023-06-26T04:34:24;98453.69;;;20.66;82.25
80149;BME280;69473;42.426;26.644;2023-06-26T04:36:49;98461.19;;;20.89;81.44
80149;BME280;69473;42.426;26.644;2023-06-26T04:39:16;98457.28;;;20.96;81.06
80149;BME280;69473;42.426;26.644;2023-06-26T04:41:43;98466.66;;;21.18;80.71
80149;BME280;69473;42.426;26.644;2023-06-26T04:44:09;98459.53;;;21.20;81.00
80149;BME280;69473;42.426;26.644;2023-06-26T04:46:34;98459.03;;;21.29;80.21
80149;BME280;69473;42.426;26.644;2023-06-26T04:49:00;98454.97;;;21.39;79.84
80149;BME280;69473;42.426;26.644;2023-06-26T04:51:28;98460.75;;;21.46;80.09
80149;BME280;69473;42.426;26.644;2023-06-26T04:53:55;98450.94;;;21.50;80.29
80149;BME280;69473;42.426;26.644;2023-06-26T04:56:20;98458.22;;;21.60;80.00
80149;BME280;69473;42.426;26.644;2023-06-26T04:58:46;98458.53;;;21.70;78.99
80149;BME280;69473;42.426;26.644;2023-06-26T05:01:11;98453.94;;;21.74;78.32
80149;BME280;69473;42.426;26.644;2023-06-26T05:03:39;98461.44;;;21.81;77.67
80149;BME280;69473;42.426;26.644;2023-06-26T05:06:04;98453.91;;;21.89;76.91
80149;BME280;69473;42.426;26.644;2023-06-26T05:08:30;98454.03;;;21.88;75.64
80149;BME280;69473;42.426;26.644;2023-06-26T05:10:55;98455.09;;;22.00;76.06
80149;BME280;69473;42.426;26.644;2023-06-26T05:13:25;98455.09;;;22.00;76.06
80149;BME280;69473;42.426;26.644;2023-06-26T05:15:52;98465.47;;;22.03;76.94
80149;BME280;69473;42.426;26.644;2023-06-26T05:18:18;98474.66;;;21.96;77.40
80149;BME280;69473;42.426;26.644;2023-06-26T05:20:44;98472.66;;;21.85;76.15
80149;BME280;69473;42.426;26.644;2023-06-26T05:23:13;98474.38;;;21.70;77.62
80149;BME280;69473;42.426;26.644;2023-06-26T05:25:41;98477.28;;;21.65;77.66
80149;BME280;69473;42.426;26.644;2023-06-26T05:28:07;98481.66;;;21.65;77.62
80149;BME280;69473;42.426;26.644;2023-06-26T05:30:36;98483.91;;;21.57;78.03
80149;BME280;69473;42.426;26.644;2023-06-26T05:33:02;98489.50;;;21.51;79.03
80149;BME280;69473;42.426;26.644;2023-06-26T05:35:29;98487.50;;;21.56;78.97
80149;BME280;69473;42.426;26.644;2023-06-26T05:37:57;98499.88;;;21.54;79.04
80149;BME280;69473;42.426;26.644;2023-06-26T05:40:22;98491.31;;;21.66;77.68
80149;BME280;69473;42.426;26.644;2023-06-26T05:42:48;98500.56;;;21.41;78.33
80149;BME280;69473;42.426;26.644;2023-06-26T05:45:15;98504.31;;;21.37;79.26
80149;BME280;69473;42.426;26.644;2023-06-26T05:47:41;98511.75;;;21.29;80.18
80149;BME280;69473;42.426;26.644;2023-06-26T05:50:08;98504.44;;;21.34;79.40
80149;BME280;69473;42.426;26.644;2023-06-26T05:52:34;98512.97;;;21.39;79.74
80149;BME280;69473;42.426;26.644;2023-06-26T05:55:01;98513.44;;;21.30;80.17
80149;BME280;69473;42.426;26.644;2023-06-26T05:57:27;98519.78;;;21.43;78.75
80149;BME280;69473;42.426;26.644;2023-06-26T05:59:54;98523.94;;;21.48;79.39
80149;BME280;69473;42.426;26.644;2023-06-26T06:02:19;98508.03;;;21.49;78.06
80149;BME280;69473;42.426;26.644;2023-06-26T06:04:45;98526.41;;;21.51;77.68
80149;BME280;69473;42.426;26.644;2023-06-26T06:07:11;98522.09;;;21.50;77.62
80149;BME280;69473;42.426;26.644;2023-06-26T06:09:37;98535.94;;;21.53;76.16
80149;BME280;69473;42.426;26.644;2023-06-26T06:12:07;98545.66;;;21.53;76.12
80149;BME280;69473;42.426;26.644;2023-06-26T06:14:33;98533.88;;;21.42;74.68
80149;BME280;69473;42.426;26.644;2023-06-26T06:16:59;98543.97;;;21.34;74.85
80149;BME280;69473;42.426;26.644;2023-06-26T06:19:25;98537.94;;;21.32;74.86
80149;BME280;69473;42.426;26.644;2023-06-26T06:21:50;98533.88;;;21.42;72.64
80149;BME280;69473;42.426;26.644;2023-06-26T06:24:16;98530.97;;;21.31;72.26
80149;BME280;69473;42.426;26.644;2023-06-26T06:26:41;98531.94;;;21.13;73.25
80149;BME280;69473;42.426;26.644;2023-06-26T06:29:07;98523.44;;;21.23;70.87
80149;BME280;69473;42.426;26.644;2023-06-26T06:31:32;98521.84;;;20.88;73.14
80149;BME280;69473;42.426;26.644;2023-06-26T06:33:58;98533.19;;;20.72;74.27
80149;BME280;69473;42.426;26.644;2023-06-26T06:36:23;98538.34;;;20.91;73.03
80149;BME280;69473;42.426;26.644;2023-06-26T06:38:49;98532.53;;;20.85;73.40
80149;BME280;69473;42.426;26.644;2023-06-26T06:41:14;98537.72;;;20.86;73.41
80149;BME280;69473;42.426;26.644;2023-06-26T06:43:41;98528.75;;;20.73;74.01
80149;BME280;69473;42.426;26.644;2023-06-26T06:46:08;98529.38;;;20.78;73.81
80149;BME280;69473;42.426;26.644;2023-06-26T06:48:34;98521.81;;;20.72;73.74
80149;BME280;69473;42.426;26.644;2023-06-26T06:51:00;98536.41;;;20.77;73.18
80149;BME280;69473;42.426;26.644;2023-06-26T06:53:26;98528.91;;;20.70;74.67
80149;BME280;69473;42.426;26.644;2023-06-26T06:55:51;98528.34;;;20.46;75.50
80149;BME280;69473;42.426;26.644;2023-06-26T06:58:17;98527.06;;;20.72;74.73
80149;BME280;69473;42.426;26.644;2023-06-26T07:00:46;98533.13;;;20.90;73.54
80149;BME280;69473;42.426;26.644;2023-06-26T07:03:11;98531.03;;;20.96;73.15
80149;BME280;69473;42.426;26.644;2023-06-26T07:05:37;98536.50;;;20.76;74.02
80149;BME280;69473;42.426;26.644;2023-06-26T07:08:03;98536.41;;;20.77;75.06
80149;BME280;69473;42.426;26.644;2023-06-26T07:10:29;98533.22;;;20.88;74.10
80149;BME280;69473;42.426;26.644;2023-06-26T07:12:55;98533.22;;;20.88;74.07
80149;BME280;69473;42.426;26.644;2023-06-26T07:15:20;98539.19;;;20.92;74.18
80149;BME280;69473;42.426;26.644;2023-06-26T07:17:46;98535.09;;;20.86;74.06
80149;BME280;69473;42.426;26.644;2023-06-26T07:20:11;98536.66;;;20.90;75.14
80149;BME280;69473;42.426;26.644;2023-06-26T07:22:41;98538.25;;;20.93;74.85
80149;BME280;69473;42.426;26.644;2023-06-26T07:25:08;98539.19;;;20.92;74.74
80149;BME280;69473;42.426;26.644;2023-06-26T07:27:36;98541.97;;;21.06;73.98
80149;BME280;69473;42.426;26.644;2023-06-26T07:30:02;98537.22;;;21.13;74.02
80149;BME280;69473;42.426;26.644;2023-06-26T07:32:28;98538.34;;;21.25;73.60
80149;BME280;69473;42.426;26.644;2023-06-26T07:34:53;98540.72;;;21.47;73.60
80149;BME280;69473;42.426;26.644;2023-06-26T07:37:19;98545.66;;;21.53;73.57
80149;BME280;69473;42.426;26.644;2023-06-26T07:39:44;98533.72;;;21.77;70.89
80149;BME280;69473;42.426;26.644;2023-06-26T07:42:10;98542.91;;;21.86;71.60
80149;BME280;69473;42.426;26.644;2023-06-26T07:44:35;98546.81;;;21.95;73.38
80149;BME280;69473;42.426;26.644;2023-06-26T07:47:01;98554.47;;;21.83;74.14
80149;BME280;69473;42.426;26.644;2023-06-26T07:49:27;98553.44;;;22.02;72.93
80149;BME280;69473;42.426;26.644;2023-06-26T07:51:52;98562.91;;;22.06;72.65
80149;BME280;69473;42.426;26.644;2023-06-26T07:54:18;98562.47;;;21.98;72.41
80149;BME280;69473;42.426;26.644;2023-06-26T07:56:55;98567.75;;;21.98;72.36
80149;BME280;69473;42.426;26.644;2023-06-26T07:59:22;98574.91;;;21.96;73.32
80149;BME280;69473;42.426;26.644;2023-06-26T08:01:49;98573.03;;;21.98;71.22
80149;BME280;69473;42.426;26.644;2023-06-26T08:04:15;98584.38;;;21.84;72.41
80149;BME280;69473;42.426;26.644;2023-06-26T08:06:41;98588.69;;;21.69;72.76
80149;BME280;69473;42.426;26.644;2023-06-26T08:09:07;98587.66;;;21.56;74.12
80149;BME280;69473;42.426;26.644;2023-06-26T08:11:35;98605.16;;;21.57;74.02
80149;BME280;69473;42.426;26.644;2023-06-26T08:14:01;98600.53;;;21.44;75.51
80149;BME280;69473;42.426;26.644;2023-06-26T08:16:26;98596.97;;;21.45;74.31
80149;BME280;69473;42.426;26.644;2023-06-26T08:18:52;98607.03;;;21.55;73.77
80149;BME280;69473;42.426;26.644;2023-06-26T08:21:17;98601.75;;;21.55;73.10
80149;BME280;69473;42.426;26.644;2023-06-26T08:23:43;98598.03;;;21.59;73.18
80149;BME280;69473;42.426;26.644;2023-06-26T08:26:08;98607.84;;;21.39;73.52
80149;BME280;69473;42.426;26.644;2023-06-26T08:28:34;98596.81;;;21.49;73.93
80149;BME280;69473;42.426;26.644;2023-06-26T08:30:59;98596.31;;;21.58;73.62
80149;BME280;69473;42.426;26.644;2023-06-26T08:33:25;98598.56;;;21.65;73.43
80149;BME280;69473;42.426;26.644;2023-06-26T08:35:51;98602.09;;;21.80;71.01
80149;BME280;69473;42.426;26.644;2023-06-26T08:38:16;98595.81;;;21.67;72.03
80149;BME280;69473;42.426;26.644;2023-06-26T08:40:42;98597.84;;;21.62;73.14
80149;BME280;69473;42.426;26.644;2023-06-26T08:43:08;98595.66;;;21.70;72.84
80149;BME280;69473;42.426;26.644;2023-06-26T08:45:33;98603.81;;;21.65;72.84
80149;BME280;69473;42.426;26.644;2023-06-26T08:48:00;98607.31;;;21.66;72.55
80149;BME280;69473;42.426;26.644;2023-06-26T08:50:30;98608.59;;;21.59;73.97
80149;BME280;69473;42.426;26.644;2023-06-26T08:55:52;98612.97;;;21.58;73.88
80149;BME280;69473;42.426;26.644;2023-06-26T08:58:19;98623.00;;;21.52;74.25
80149;BME280;69473;42.426;26.644;2023-06-26T09:00:45;98612.13;;;21.58;73.79
80149;BME280;69473;42.426;26.644;2023-06-26T09:03:12;98613.16;;;21.71;71.12
80149;BME280;69473;42.426;26.644;2023-06-26T09:05:38;98620.66;;;21.63;71.82
80149;BME280;69473;42.426;26.644;2023-06-26T09:08:04;98627.63;;;21.64;72.50
80149;BME280;69473;42.426;26.644;2023-06-26T09:10:30;98625.59;;;21.69;72.33
80149;BME280;69473;42.426;26.644;2023-06-26T09:12:56;98625.59;;;21.69;71.52
80149;BME280;69473;42.426;26.644;2023-06-26T09:15:27;98622.34;;;21.64;72.51
80149;BME280;69473;42.426;26.644;2023-06-26T09:17:56;98631.03;;;21.66;73.32
80149;BME280;69473;42.426;26.644;2023-06-26T09:20:23;98635.13;;;21.72;72.11
80149;BME280;69473;42.426;26.644;2023-06-26T09:22:48;98636.97;;;21.54;73.42
80149;BME280;69473;42.426;26.644;2023-06-26T09:25:14;98637.84;;;21.70;70.41
80149;BME280;69473;42.426;26.644;2023-06-26T09:27:39;98642.41;;;21.51;72.52
80149;BME280;69473;42.426;26.644;2023-06-26T09:30:05;98645.03;;;21.51;73.75
80149;BME280;69473;42.426;26.644;2023-06-26T09:32:35;98642.31;;;21.35;75.45
80149;BME280;69473;42.426;26.644;2023-06-26T09:35:04;98652.41;;;21.44;74.39
80149;BME280;69473;42.426;26.644;2023-06-26T09:37:30;98648.88;;;21.61;73.10
80149;BME280;69473;42.426;26.644;2023-06-26T09:39:55;98642.16;;;21.71;71.69
80149;BME280;69473;42.426;26.644;2023-06-26T09:42:21;98642.44;;;21.82;71.61
80149;BME280;69473;42.426;26.644;2023-06-26T09:44:48;98649.41;;;21.83;71.13
80149;BME280;69473;42.426;26.644;2023-06-26T09:47:18;98646.88;;;21.82;71.24
80149;BME280;69473;42.426;26.644;2023-06-26T09:49:44;98642.63;;;21.79;70.82
80149;BME280;69473;42.426;26.644;2023-06-26T09:52:15;98652.50;;;21.91;69.84
80149;BME280;69473;42.426;26.644;2023-06-26T09:54:45;98644.50;;;21.93;70.42
80149;BME280;69473;42.426;26.644;2023-06-26T09:57:13;98645.53;;;21.90;69.63
80149;BME280;69473;42.426;26.644;2023-06-26T09:59:39;98634.31;;;22.03;69.81
80149;BME280;69473;42.426;26.644;2023-06-26T10:02:05;98643.31;;;22.14;69.81
80149;BME280;69473;42.426;26.644;2023-06-26T10:04:32;98627.66;;;22.27;69.13
80149;BME280;69473;42.426;26.644;2023-06-26T10:07:01;98634.84;;;22.25;69.05
80149;BME280;69473;42.426;26.644;2023-06-26T10:09:29;98632.59;;;22.33;70.17
80149;BME280;69473;42.426;26.644;2023-06-26T10:12:06;98630.22;;;22.45;68.48
80149;BME280;69473;42.426;26.644;2023-06-26T10:14:37;98631.22;;;22.42;69.21
80149;BME280;69473;42.426;26.644;2023-06-26T10:17:10;98626.09;;;22.55;68.52
80149;BME280;69473;42.426;26.644;2023-06-26T10:19:40;98627.66;;;22.59;69.33
80149;BME280;69473;42.426;26.644;2023-06-26T10:22:07;98628.03;;;22.67;68.94
80149;BME280;69473;42.426;26.644;2023-06-26T10:24:35;98632.94;;;22.59;70.33
80149;BME280;69473;42.426;26.644;2023-06-26T10:29:36;98630.09;;;22.62;70.55
80149;BME280;69473;42.426;26.644;2023-06-26T10:32:04;98632.44;;;22.82;70.21
80149;BME280;69473;42.426;26.644;2023-06-26T10:34:31;98619.03;;;22.86;69.22
80149;BME280;69473;42.426;26.644;2023-06-26T10:37:02;98619.63;;;22.91;69.26
80149;BME280;69473;42.426;26.644;2023-06-26T10:39:49;98624.78;;;23.08;67.99
80149;BME280;69473;42.426;26.644;2023-06-26T10:42:17;98626.88;;;23.17;67.33
80149;BME280;69473;42.426;26.644;2023-06-26T10:44:45;98617.44;;;23.13;68.23
80149;BME280;69473;42.426;26.644;2023-06-26T10:49:54;98613.94;;;23.13;68.32
80149;BME280;69473;42.426;26.644;2023-06-26T10:52:19;98606.69;;;23.16;67.97
80149;BME280;69473;42.426;26.644;2023-06-26T10:54:45;98613.38;;;23.22;68.38
80149;BME280;69473;42.426;26.644;2023-06-26T10:57:10;98604.22;;;23.42;67.42
80149;BME280;69473;42.426;26.644;2023-06-26T10:59:39;98597.84;;;23.46;67.94
80149;BME280;69473;42.426;26.644;2023-06-26T11:02:06;98596.31;;;23.56;66.84
80149;BME280;69473;42.426;26.644;2023-06-26T11:04:58;98600.25;;;23.63;68.48
80149;BME280;69473;42.426;26.644;2023-06-26T11:07:26;98592.91;;;23.68;67.87
80149;BME280;69473;42.426;26.644;2023-06-26T11:10:07;98594.50;;;23.85;66.43
80149;BME280;69473;42.426;26.644;2023-06-26T11:12:41;98588.28;;;23.86;67.33
80149;BME280;69473;42.426;26.644;2023-06-26T11:15:11;98578.50;;;24.01;67.13
80149;BME280;69473;42.426;26.644;2023-06-26T11:17:38;98576.00;;;24.12;66.72
80149;BME280;69473;42.426;26.644;2023-06-26T11:20:09;98575.94;;;24.27;65.66
80149;BME280;69473;42.426;26.644;2023-06-26T11:22:37;98574.63;;;24.34;64.93
80149;BME280;69473;42.426;26.644;2023-06-26T11:25:04;98574.47;;;24.50;64.40
80149;BME280;69473;42.426;26.644;2023-06-26T11:27:43;98580.00;;;24.59;64.29
80149;BME280;69473;42.426;26.644;2023-06-26T11:30:23;98567.09;;;24.68;63.91
80149;BME280;69473;42.426;26.644;2023-06-26T11:32:49;98577.28;;;24.74;65.52
80149;BME280;69473;42.426;26.644;2023-06-26T11:35:25;98571.03;;;24.75;62.85
80149;BME280;69473;42.426;26.644;2023-06-26T11:37:59;98568.59;;;24.72;64.76
80149;BME280;69473;42.426;26.644;2023-06-26T11:40:27;98562.66;;;24.81;62.77
80149;BME280;69473;42.426;26.644;2023-06-26T11:42:53;98567.97;;;24.81;62.74
80149;BME280;69473;42.426;26.644;2023-06-26T11:45:22;98562.00;;;24.64;62.80
80149;BME280;69473;42.426;26.644;2023-06-26T11:47:48;98561.59;;;24.71;62.47
80149;BME280;69473;42.426;26.644;2023-06-26T11:50:17;98558.63;;;24.75;63.70
80149;BME280;69473;42.426;26.644;2023-06-26T11:52:43;98564.34;;;24.82;61.75
80149;BME280;69473;42.426;26.644;2023-06-26T11:55:09;98566.91;;;24.83;63.12
80149;BME280;69473;42.426;26.644;2023-06-26T11:57:36;98563.09;;;24.75;62.52
80149;BME280;69473;42.426;26.644;2023-06-26T12:00:14;98568.19;;;24.78;62.33
80149;BME280;69473;42.426;26.644;2023-06-26T12:02:42;98564.53;;;24.66;62.41
80149;BME280;69473;42.426;26.644;2023-06-26T12:05:08;98558.63;;;24.75;62.15
80149;BME280;69473;42.426;26.644;2023-06-26T12:07:34;98557.78;;;24.75;61.53
80149;BME280;69473;42.426;26.644;2023-06-26T12:10:03;98556.72;;;24.64;61.51
80149;BME280;69473;42.426;26.644;2023-06-26T12:12:30;98556.72;;;24.64;61.30
80149;BME280;69473;42.426;26.644;2023-06-26T12:14:57;98554.13;;;24.50;61.95
80149;BME280;69473;42.426;26.644;2023-06-26T12:17:23;98556.03;;;24.48;62.13
80149;BME280;69473;42.426;26.644;2023-06-26T12:19:52;98552.75;;;24.57;62.32
80149;BME280;69473;42.426;26.644;2023-06-26T12:22:18;98549.91;;;24.60;60.92
80149;BME280;69473;42.426;26.644;2023-06-26T12:24:46;98545.03;;;24.67;60.50
80149;BME280;69473;42.426;26.644;2023-06-26T12:27:14;98546.53;;;24.58;60.93
80149;BME280;69473;42.426;26.644;2023-06-26T12:29:45;98548.03;;;24.62;60.92
80149;BME280;69473;42.426;26.644;2023-06-26T12:32:12;98555.97;;;24.62;62.72
80149;BME280;69473;42.426;26.644;2023-06-26T12:34:38;98556.56;;;24.53;62.20
80149;BME280;69473;42.426;26.644;2023-06-26T12:37:10;98553.94;;;24.53;61.38
80149;BME280;69473;42.426;26.644;2023-06-26T12:39:57;98550.13;;;24.57;60.63
80149;BME280;69473;42.426;26.644;2023-06-26T12:42:25;98549.69;;;24.63;60.24
80149;BME280;69473;42.426;26.644;2023-06-26T12:44:51;98564.47;;;24.68;60.64
80149;BME280;69473;42.426;26.644;2023-06-26T12:47:22;98563.63;;;24.80;60.91
80149;BME280;69473;42.426;26.644;2023-06-26T12:49:52;98566.50;;;24.77;60.87
80149;BME280;69473;42.426;26.644;2023-06-26T12:52:19;98560.78;;;24.83;59.99
80149;BME280;69473;42.426;26.644;2023-06-26T12:54:45;98565.00;;;24.85;60.60
80149;BME280;69473;42.426;26.644;2023-06-26T12:57:13;98562.88;;;25.03;61.38
80149;BME280;69473;42.426;26.644;2023-06-26T12:59:39;98565.47;;;25.18;60.88
80149;BME280;69473;42.426;26.644;2023-06-26T13:02:05;98566.53;;;25.28;61.45
80149;BME280;69473;42.426;26.644;2023-06-26T13:04:32;98572.00;;;25.50;57.70
80149;BME280;69473;42.426;26.644;2023-06-26T13:06:58;98567.03;;;25.58;58.27